Temperatura máxima Desde: 01-09-2014 13:00 Hasta: 19:59 Aviso por: Temperatura máxima Nivel: Amarillo info button
 

Informes METAR

 

LEZL - Sevilla, Spain
Distancia de la estación: ENE 8km
Actualización: 01/09/2014 15:00
Despejado
Despejado
 Viento de SSE
Viento: SSE 7 km/h
Temperatura: 36°C
Rocío: 16°C
Humedad: 30%
Barómetro: 1012 hPa
Resumen: Despejado
Visibilidad: mayor de 10 km
2014/09/01 13:00 LEZL 011300Z 16004KT 060V210 CAVOK 36/16 Q1012 NOSIG
LEMO - Morón, Spain
Distancia de la estación: SE 43km
Actualización: 01/09/2014 14:00
NOT Current
Despejado
Despejado
 Viento de variable
Viento: variable 4 km/h
Temperatura: 35°C
Rocío: 16°C
Humedad: 32%
Barómetro: 1013 hPa
Resumen: Despejado
Visibilidad: mayor de 10 km
2014/09/01 12:00 LEMO 011200Z VRB02KT CAVOK 35/16 Q1013 NOSIG
LEJR - Jeréz, Spain
Distancia de la estación: S 71km
Actualización: 01/09/2014 15:30
Despejado
Despejado
 Viento de variable
Viento: variable 4 km/h
Temperatura: 36°C
Rocío: 18°C
Humedad: 34%
Barómetro: 1012 hPa
Resumen: Despejado
Visibilidad: mayor de 10 km
2014/09/01 13:30 LEJR 011330Z VRB02KT CAVOK 36/18 Q1012
 
LERT - Rota, Spain
Distancia de la estación: SSO 89km
Actualización: 01/09/2014 15:00
Despejado
Despejado
 Viento de SO
Viento: SO 11 km/h
Temperatura: 30°C
Índice de calor: 32°C
Rocío: 20°C
Humedad: 55%
Barómetro: 1013 hPa
Resumen: Despejado
Visibilidad: mayor de 10 km
2014/09/01 13:00 LERT 011300Z 22006KT 170V260 CAVOK 30/20 Q1013 NOSIG
LEMG - Málaga, Spain
Distancia de la estación: ESE 157km
Actualización: 01/09/2014 15:30
Poco nuboso
Poco nuboso
 Viento de SSE
Viento: SSE 17 km/h
Temperatura: 27°C
Índice de calor: 29°C
Rocío: 22°C
Humedad: 74%
Barómetro: 1015 hPa
Nubes: Poco nuboso
Visibilidad: 10 km
Detalles de las nubes: Poco nuboso 762 m
2014/09/01 13:30 LEMG 011330Z 15009KT 110V200 9999 FEW025 27/22 Q1015 NOSIG
LEBA - Córdoba, Spain
Distancia de la estación: ENE 115km
Actualización: 01/09/2014 15:00
Poco nuboso
Poco nuboso
 Viento de NO
Viento: NO 2 km/h
Temperatura: 37°C
Rocío: 16°C
Humedad: 29%
Barómetro: 1013 hPa
Nubes: Poco nuboso
Visibilidad: 10 km
Detalles de las nubes: Poco nuboso 1067 m
2014/09/01 13:00 LEBA 011300Z 31001KT 9999 FEW035 37/16 Q1013
 
LEGR - Granada, Spain
Distancia de la estación: E 198km
Actualización: 01/09/2014 15:30
Poco nuboso
Poco nuboso
 Viento de variable
Viento: variable 4 km/h
Temperatura: 38°C
Rocío: 11°C
Humedad: 20%
Barómetro: 1016 hPa
Nubes: Poco nuboso
Visibilidad: 10 km
Detalles de las nubes: Poco nuboso 2438 m
2014/09/01 13:30 LEGR 011330Z VRB02KT 9999 FEW080 38/11 Q1016
LEAM - Almería, Spain
Distancia de la estación: E 326km
Actualización: 01/09/2014 15:30
Poco nuboso
Poco nuboso
 Viento de SSE
Viento: SSE 22 km/h
Temperatura: 30°C
Índice de calor: 35°C
Rocío: 24°C
Humedad: 70%
Barómetro: 1015 hPa
Nubes: Poco nuboso
Visibilidad: 10 km
Detalles de las nubes: Poco nuboso 914 m
2014/09/01 13:30 LEAM 011330Z 16012KT 9999 FEW030 30/24 Q1015
LEMD - Madrid/Barajas, Spain
Distancia de la estación: NNE 402km
Actualización: 01/09/2014 15:30
Poco nuboso
Poco nuboso
 Viento de SO
Viento: SO 13 km/h
Temperatura: 35°C
Rocío: 11°C
Humedad: 23%
Barómetro: 1016 hPa
Nubes: Poco nuboso
Visibilidad: 10 km
Detalles de las nubes: Poco nuboso 1524 m
2014/09/01 13:30 LEMD 011330Z 23007KT 180V340 9999 FEW050 35/11 Q1016 NOSIG
 
LEVD - Valladolid, Spain
Distancia de la estación: N 492km
Actualización: 01/09/2014 15:30
Despejado
Despejado
 Viento de ENE
Viento: ENE 6 km/h
Temperatura: 30°C
Rocío: 6°C
Humedad: 22%
Barómetro: 1019 hPa
Resumen: Despejado
Visibilidad: mayor de 10 km
2014/09/01 13:30 LEVD 011330Z 06003KT CAVOK 30/06 Q1019
LEBL - Barcelona, Spain
Distancia de la estación: NE 816km
Actualización: 01/09/2014 15:30
Poco nuboso
Poco nuboso
 Viento de SE
Viento: SE 17 km/h
Temperatura: 25°C
Rocío: 19°C
Humedad: 69%
Barómetro: 1015 hPa
Nubes: Poco nuboso
Visibilidad: 10 km
Detalles de las nubes: Poco nuboso 610 m
2014/09/01 13:30 LEBL 011330Z 14009KT 100V170 9999 FEW020 25/19 Q1015 NOSIG
LEVC - Valencia, Spain
Distancia de la estación: ENE 535km
Actualización: 01/09/2014 15:30
Poco nuboso
Poco nuboso
 Viento de SE
Viento: SE 15 km/h
Temperatura: 32°C
Índice de calor: 33°C
Rocío: 18°C
Humedad: 43%
Barómetro: 1014 hPa
Nubes: Poco nuboso
Visibilidad: 10 km
Detalles de las nubes: Poco nuboso 671 m
2014/09/01 13:30 LEVC 011330Z 14008KT 080V170 9999 FEW022 32/18 Q1014 NOSIG